• Join FlightAware (Why Join?)
  • Login
  • US Flag 
05:22AM EST


 

Airport Tracker/Info


-or-


 

Live Flight TrackerFlight Track Log ✈ EJA904 ✈ 13-Sep-2013 ✈ KAUS - KGPT

Flight Track Log - Related Links

Times and Time Zones

All times are in EDT time to prevent confusion due to time zone crossing. See the EJA904 flight status page for this flight to view local times or setup timezone preferences in your user account.

Time Position Orientation Groundspeed Altitude Reporting Facility
EDT Latitude Longitude Course Direction KTS MPH feet Rate Location/Type
09:27AM 30.1044 -97.5700 90° East 265 305 5,000  Level Houston Center
09:28AM 30.1403 -97.4931 62° Northeast 271 312 7,500 1,800 Climbing Houston Center
09:30AM 30.1548 -97.2633 86° East  Level Estimated
09:31AM 30.2372 -96.8885 95° East  Level Estimated
09:32AM 30.2438 -96.7582 90° East  Level Estimated
09:36AM 30.3256 -96.5858 87° East 415 478 22,000  Level Houston Center
09:37AM 30.2082 -96.3523 86° East  Level Estimated
09:38AM 30.2153 -96.2221 86° East  Level Estimated
09:38AM 30.3000 -96.3867 90° East  Level FlightAware Approximate
09:39AM 30.2223 -96.0918 86° East  Level Estimated
09:39AM 30.3422 -96.1669 90° East 437 503 25,900  Level Houston Center
09:40AM 30.2291 -95.9616 86° East  Level Estimated
09:41AM 30.2359 -95.8313 87° East  Level Estimated
09:41AM 30.3489 -95.9777 120° Southeast  Level Estimated
09:48AM 30.3776 -95.0635 84° East  Level Estimated
09:49AM 30.2681 -95.0319 166° South  Level FlightAware Approximate
09:50AM 30.2741 -94.9015 84° East  Level Estimated
09:51AM 30.2647 -94.7714 95° East  Level FlightAware Approximate
09:52AM 30.2553 -94.6413 95° East  Level FlightAware Approximate
09:53AM 30.2457 -94.5112 95° East  Level FlightAware Approximate
09:54AM 30.2360 -94.3812 95° East  Level FlightAware Approximate
09:55AM 30.2262 -94.2512 95° East  Level FlightAware Approximate
09:56AM 30.2162 -94.1212 95° East  Level FlightAware Approximate
09:57AM 30.2061 -93.9912 95° East  Level FlightAware Approximate
09:58AM 30.1959 -93.8613 95° East  Level FlightAware Approximate
09:59AM 30.1855 -93.7314 95° East  Level FlightAware Approximate
10:00AM 30.1750 -93.6015 95° East  Level FlightAware Approximate
10:01AM 30.1644 -93.4717 95° East  Level FlightAware Approximate
10:02AM 30.1537 -93.3419 95° East  Level FlightAware Approximate
10:03AM 30.1428 -93.2121 95° East  Level FlightAware Approximate
10:04AM 30.1343 -93.0950 78° East  Level FlightAware Approximate
10:05AM 30.1580 -92.9675 78° East  Level FlightAware Approximate
10:06AM 30.1816 -92.8400 78° East  Level FlightAware Approximate
10:07AM 30.2051 -92.7124 78° East  Level FlightAware Approximate
10:08AM 30.2285 -92.5847 78° East  Level FlightAware Approximate
10:09AM 30.2520 -92.4570 77° East  Level FlightAware Approximate
10:10AM 30.2777 -92.3299 77° East  Level FlightAware Approximate
10:11AM 30.3033 -92.2028 77° East  Level FlightAware Approximate
10:12AM 30.3288 -92.0755 77° East  Level FlightAware Approximate
10:13AM 30.3542 -91.9482 77° East  Level FlightAware Approximate
10:14AM 30.3794 -91.8208 77° East  Level FlightAware Approximate
10:15AM 30.4046 -91.6934 77° East  Level FlightAware Approximate
10:16AM 30.4301 -91.5661 77° East  Level FlightAware Approximate
10:17AM 30.4521 -91.4378 79° East  Level FlightAware Approximate
10:18AM 30.4766 -91.3102 74° East  Level FlightAware Approximate
10:19AM 30.4706 -91.1815 98° East  Level FlightAware Approximate
10:20AM 30.4667 -91.0511 90° East  Level FlightAware Approximate
10:21AM 30.4667 -90.9202 90° East  Level FlightAware Approximate
10:22AM 30.4667 -90.7894 90° East  Level FlightAware Approximate
10:23AM 30.4517 -90.6603 101° East  Level FlightAware Approximate
10:24AM 30.4500 -90.5296 90° East  Level FlightAware Approximate
10:25AM 30.4501 -90.3988 90° East  Level FlightAware Approximate
10:26AM 30.4500 -90.2681 90° East  Level FlightAware Approximate
10:27AM 30.4432 -90.1376 95° East  Level FlightAware Approximate
10:28AM 30.4339 -90.0072 95° East  Level FlightAware Approximate
10:29AM 30.4334 -89.8765 90° East  Level FlightAware Approximate
10:30AM 30.4317 -89.7458 95° East  Level FlightAware Approximate
10:31AM 30.4217 -89.6155 95° East  Level FlightAware Approximate
10:32AM 30.4167 -89.4850 90° East  Level FlightAware Approximate
10:33AM 30.4167 -89.3543 90° East  Level FlightAware Approximate
10:34AM 30.4000 -89.2287 90° East  Level FlightAware Approximate
10:35AM 30.4000 -89.0980 90° East  Level FlightAware Approximate
10:36AM 30.4000 -89.0667 90° East  Level FlightAware Approximate
10:37AM 30.4073 -89.0701 90° East  Level Estimated
10:38AM 30.4073 -89.0701 90° East  Level Estimated
10:39AM 30.4073 -89.0701 90° East  Level Estimated
10:40AM 30.4073 -89.0701 90° East  Level Estimated
10:41AM 30.4073 -89.0701 90° East  Level Estimated
10:42AM 30.4073 -89.0701 90° East  Level Estimated
10:43AM 30.4073 -89.0701 90° East  Level Estimated
10:44AM 30.4073 -89.0701 90° East  Level Estimated
10:45AM 30.4073 -89.0701 90° East  Level Estimated
10:46AM 30.4073 -89.0701 90° East  Level Estimated
10:47AM 30.4073 -89.0701 90° East  Level Estimated
10:48AM 30.4073 -89.0701 90° East  Level Estimated
10:49AM 30.4073 -89.0701 90° East  Level Estimated